createdAt,value
2023-02-16T00:01:05.027Z,36.47
2023-02-16T00:03:31.959Z,37.05
2023-02-16T00:05:58.672Z,38.55
2023-02-16T00:08:25.365Z,38.85
2023-02-16T00:11:10.768Z,37.28
2023-02-16T00:13:48.092Z,36.72
2023-02-16T00:16:20.757Z,37.47
2023-02-16T00:18:48.021Z,37.05
2023-02-16T00:21:15.328Z,36.75
2023-02-16T00:23:42.447Z,36.20
2023-02-16T00:26:21.954Z,36.08
2023-02-16T00:28:54.632Z,36.35
2023-02-16T00:31:27.610Z,37.63
2023-02-16T00:33:55.173Z,38.20
2023-02-16T00:36:21.866Z,38.70
2023-02-16T00:38:48.469Z,39.55
2023-02-16T00:41:39.845Z,38.15
2023-02-16T00:44:34.688Z,36.60
2023-02-16T00:47:09.122Z,37.45
2023-02-16T00:49:35.758Z,38.42
2023-02-16T00:52:05.257Z,35.85
2023-02-16T00:54:32.213Z,38.05
2023-02-16T00:56:59.143Z,38.50
2023-02-16T00:59:25.803Z,38.50
2023-02-16T01:01:52.547Z,39.55
2023-02-16T01:04:22.682Z,39.63
2023-02-16T01:07:08.288Z,42.35
2023-02-16T01:09:53.688Z,40.65
2023-02-16T01:12:22.213Z,43.70
2023-02-16T01:14:53.789Z,42.83
2023-02-16T01:17:20.496Z,42.28
2023-02-16T01:19:47.397Z,43.38
2023-02-16T01:22:13.996Z,45.15
2023-02-16T01:24:40.678Z,48.45
2023-02-16T01:27:12.549Z,49.95
2023-02-16T01:29:39.531Z,49.67
2023-02-16T01:32:06.218Z,47.92
2023-02-16T01:34:32.815Z,45.30
2023-02-16T01:36:59.476Z,46.92
2023-02-16T01:39:26.114Z,43.90
2023-02-16T01:42:11.489Z,44.15
2023-02-16T01:44:55.008Z,44.17
2023-02-16T01:47:24.337Z,43.95
2023-02-16T01:49:50.976Z,46.80
2023-02-16T01:52:36.835Z,47.70
2023-02-16T01:55:24.326Z,44.25
2023-02-16T01:57:59.863Z,44.63
2023-02-16T02:00:49.546Z,45.15
2023-02-16T02:03:47.316Z,47.28
2023-02-16T02:06:17.260Z,46.75
2023-02-16T02:09:04.092Z,46.15
2023-02-16T02:11:40.205Z,46.10
2023-02-16T02:14:17.926Z,46.15
2023-02-16T02:16:59.439Z,42.85
2023-02-16T02:19:26.607Z,40.17
2023-02-16T02:23:09.608Z,38.22
2023-02-16T02:25:36.267Z,41.00
2023-02-16T02:28:14.425Z,44.67
2023-02-16T02:30:49.922Z,45.28
2023-02-16T02:33:25.489Z,44.10
2023-02-16T02:36:35.041Z,48.40
2023-02-16T02:39:10.862Z,46.03
2023-02-16T02:42:06.382Z,44.92
2023-02-16T02:44:49.168Z,45.63
2023-02-16T02:47:15.976Z,42.05
2023-02-16T02:49:53.142Z,41.67
2023-02-16T02:52:22.564Z,45.58
2023-02-16T02:55:08.205Z,42.58
2023-02-16T02:57:58.656Z,43.13
2023-02-16T03:00:41.229Z,45.65
2023-02-16T03:03:20.773Z,44.85
2023-02-16T03:05:55.845Z,42.63
2023-02-16T03:08:26.398Z,41.63
2023-02-16T03:11:20.800Z,42.03
2023-02-16T03:13:53.390Z,41.60
2023-02-16T03:16:25.988Z,42.05
2023-02-16T03:19:11.550Z,43.17
2023-02-16T03:21:57.156Z,41.88
2023-02-16T03:24:46.493Z,40.70
2023-02-16T03:27:36.206Z,42.90
2023-02-16T03:30:06.304Z,40.70
2023-02-16T03:32:33.689Z,42.67
2023-02-16T03:35:00.432Z,40.83
2023-02-16T03:37:27.632Z,43.30
2023-02-16T03:40:12.938Z,45.70
2023-02-16T03:42:39.608Z,50.80
2023-02-16T03:45:07.312Z,43.72
2023-02-16T03:47:33.959Z,42.50
2023-02-16T03:50:00.576Z,41.97
2023-02-16T03:52:27.088Z,44.58
2023-02-16T03:54:53.682Z,43.75
2023-02-16T03:57:20.422Z,44.47
2023-02-16T03:59:47.098Z,46.00
2023-02-16T04:02:13.652Z,44.47
2023-02-16T04:04:40.500Z,41.88
2023-02-16T04:07:07.084Z,40.42
2023-02-16T04:09:33.722Z,41.03
2023-02-16T04:12:18.734Z,45.25
2023-02-16T04:14:45.345Z,45.20
2023-02-16T04:17:11.986Z,42.97
2023-02-16T04:19:38.548Z,42.50
2023-02-16T04:22:05.133Z,40.28
2023-02-16T04:24:31.740Z,40.50
2023-02-16T04:26:58.517Z,39.92
2023-02-16T04:29:25.410Z,38.78
2023-02-16T04:31:52.089Z,38.03
2023-02-16T04:34:18.928Z,38.80
2023-02-16T04:36:45.532Z,39.67
2023-02-16T04:39:12.170Z,38.97
2023-02-16T04:41:38.886Z,38.13
2023-02-16T04:44:06.104Z,40.53
2023-02-16T04:46:32.749Z,41.47
2023-02-16T04:48:59.404Z,45.20
2023-02-16T04:51:26.155Z,43.72
2023-02-16T04:53:52.751Z,44.15
2023-02-16T04:56:19.583Z,42.58
2023-02-16T04:58:46.155Z,43.38
2023-02-16T05:01:24.258Z,44.45
2023-02-16T05:03:51.322Z,44.40
2023-02-16T05:06:18.085Z,44.45
2023-02-16T05:08:45.217Z,45.08
2023-02-16T05:11:31.124Z,43.42
2023-02-16T05:14:16.959Z,41.35
2023-02-16T05:16:44.377Z,41.92
2023-02-16T05:19:11.594Z,41.65
2023-02-16T05:21:38.349Z,43.08
2023-02-16T05:24:10.106Z,41.30
2023-02-16T05:26:39.191Z,40.78
2023-02-16T05:29:06.317Z,44.15
2023-02-16T05:31:33.125Z,44.42
2023-02-16T05:33:59.830Z,45.90
2023-02-16T05:36:26.441Z,45.58
2023-02-16T05:38:53.083Z,47.03
2023-02-16T05:41:25.348Z,48.22
2023-02-16T05:43:57.965Z,49.05
2023-02-16T05:46:26.964Z,47.78
2023-02-16T05:48:54.216Z,49.45
2023-02-16T05:51:21.736Z,50.60
2023-02-16T05:53:49.144Z,48.63
2023-02-16T05:56:17.207Z,48.22
2023-02-16T05:58:43.980Z,44.95
2023-02-16T06:01:10.616Z,44.03
2023-02-16T06:03:37.420Z,43.75
2023-02-16T06:06:05.604Z,43.92
2023-02-16T06:08:32.957Z,40.90
2023-02-16T06:11:00.042Z,39.22
2023-02-16T06:13:26.992Z,38.58
2023-02-16T06:15:57.131Z,38.90
2023-02-16T06:18:25.542Z,38.38
2023-02-16T06:20:52.409Z,37.35
2023-02-16T06:23:19.054Z,37.90
2023-02-16T06:25:51.561Z,40.88
2023-02-16T06:28:18.477Z,39.63
2023-02-16T06:30:45.050Z,44.28
2023-02-16T06:33:11.750Z,41.60
2023-02-16T06:35:38.343Z,40.95
2023-02-16T06:38:05.194Z,38.90
2023-02-16T06:40:31.782Z,45.75
2023-02-16T06:42:58.398Z,39.17
2023-02-16T06:45:25.007Z,40.08
2023-02-16T06:47:51.534Z,42.00
2023-02-16T06:50:19.095Z,43.28
2023-02-16T06:52:45.700Z,40.97
2023-02-16T06:55:12.802Z,41.20
2023-02-16T06:57:39.568Z,42.22
2023-02-16T07:00:07.723Z,41.70
2023-02-16T07:02:35.707Z,41.45
2023-02-16T07:05:03.257Z,41.08
2023-02-16T07:07:31.301Z,42.83
2023-02-16T07:09:58.442Z,41.72
2023-02-16T07:12:25.062Z,41.22
2023-02-16T07:14:51.796Z,40.80
2023-02-16T07:17:18.352Z,41.33
2023-02-16T07:19:44.961Z,41.10
2023-02-16T07:22:11.870Z,41.83
2023-02-16T07:24:38.450Z,42.55
2023-02-16T07:27:05.639Z,43.38
2023-02-16T07:29:32.308Z,42.70
2023-02-16T07:31:59.067Z,41.10
2023-02-16T07:34:25.787Z,40.00
2023-02-16T07:36:52.388Z,40.28
2023-02-16T07:39:19.609Z,40.00
2023-02-16T07:41:46.284Z,43.50
2023-02-16T07:44:12.986Z,43.47
2023-02-16T07:46:39.615Z,46.53
2023-02-16T07:49:06.320Z,47.92
2023-02-16T07:51:33.198Z,50.58
2023-02-16T07:54:00.955Z,51.78
2023-02-16T07:56:29.784Z,51.42
2023-02-16T07:58:58.189Z,54.22
2023-02-16T08:01:25.697Z,52.40
2023-02-16T08:03:53.128Z,50.97
2023-02-16T08:06:20.429Z,51.40
2023-02-16T08:08:47.527Z,53.40
2023-02-16T08:11:18.377Z,53.72
2023-02-16T08:13:45.842Z,53.83
2023-02-16T08:16:24.566Z,54.50
2023-02-16T08:18:52.488Z,56.05
2023-02-16T08:21:23.614Z,58.50
2023-02-16T08:23:58.782Z,55.85
2023-02-16T08:26:28.888Z,59.80
2023-02-16T08:28:57.462Z,57.72
2023-02-16T08:31:28.482Z,58.30
2023-02-16T08:33:56.645Z,58.53
2023-02-16T08:36:32.945Z,62.65
2023-02-16T08:39:01.126Z,61.15
2023-02-16T08:41:36.662Z,64.35
2023-02-16T08:44:05.332Z,62.55
2023-02-16T08:46:33.296Z,60.78
2023-02-16T08:49:01.315Z,60.33
2023-02-16T08:51:30.752Z,59.53
2023-02-16T08:53:58.576Z,58.15
2023-02-16T08:56:26.053Z,60.22
2023-02-16T08:58:53.008Z,55.28
2023-02-16T09:01:19.687Z,57.17
2023-02-16T09:03:47.144Z,54.00
2023-02-16T09:06:15.353Z,58.15
2023-02-16T09:08:42.360Z,58.33
2023-02-16T09:11:12.959Z,60.25
2023-02-16T09:13:41.086Z,56.67
2023-02-16T09:16:10.715Z,57.22
2023-02-16T09:18:38.357Z,57.42
2023-02-16T09:21:11.098Z,53.45
2023-02-16T09:23:44.378Z,54.53
2023-02-16T09:26:12.084Z,53.95
2023-02-16T09:28:40.033Z,51.90
2023-02-16T09:31:25.661Z,50.45
2023-02-16T09:33:54.640Z,47.60
2023-02-16T09:36:21.280Z,50.15
2023-02-16T09:38:49.310Z,48.55
2023-02-16T09:41:23.225Z,42.92
2023-02-16T09:43:59.676Z,45.67
2023-02-16T09:46:30.667Z,47.63
2023-02-16T09:48:58.858Z,46.08
2023-02-16T09:51:34.618Z,45.75
2023-02-16T09:54:28.291Z,46.15
2023-02-16T09:57:01.945Z,43.05
2023-02-16T10:00:00.568Z,43.92
2023-02-16T10:02:40.391Z,43.13
2023-02-16T10:05:21.018Z,44.00
2023-02-16T10:07:53.710Z,42.13
2023-02-16T10:10:28.687Z,43.35
2023-02-16T10:13:21.556Z,44.13
2023-02-16T10:15:49.836Z,41.25
2023-02-16T10:18:31.260Z,40.40
2023-02-16T10:21:03.092Z,41.55
2023-02-16T10:23:46.539Z,42.85
2023-02-16T10:26:13.176Z,41.05
2023-02-16T10:28:52.999Z,41.45
2023-02-16T10:31:35.076Z,45.08
2023-02-16T10:34:23.657Z,40.30
2023-02-16T10:37:18.271Z,39.30
2023-02-16T10:40:06.377Z,38.72
2023-02-16T10:42:56.404Z,40.35
2023-02-16T10:45:49.649Z,39.33
2023-02-16T10:48:21.100Z,41.47
2023-02-16T10:50:59.122Z,40.60
2023-02-16T10:53:31.392Z,38.90
2023-02-16T10:55:58.977Z,39.83
2023-02-16T10:58:42.023Z,40.40
2023-02-16T11:01:30.459Z,38.85
2023-02-16T11:03:57.033Z,44.65
2023-02-16T11:06:29.131Z,40.33
2023-02-16T11:09:01.300Z,39.15
2023-02-16T11:11:35.483Z,40.22
2023-02-16T11:14:09.505Z,40.17
2023-02-16T11:16:36.271Z,39.78
2023-02-16T11:19:23.454Z,39.42
2023-02-16T11:21:59.002Z,37.53
2023-02-16T11:24:33.566Z,38.58
2023-02-16T11:27:21.493Z,39.70
2023-02-16T11:29:48.557Z,41.03
2023-02-16T11:32:18.367Z,39.45
2023-02-16T11:34:53.062Z,35.22
2023-02-16T11:37:28.752Z,35.40
2023-02-16T11:40:18.800Z,33.80
2023-02-16T11:42:48.860Z,36.13
2023-02-16T11:45:41.499Z,33.53
2023-02-16T11:48:13.098Z,35.65
2023-02-16T11:50:55.768Z,35.80
2023-02-16T11:53:28.767Z,34.60
2023-02-16T11:56:13.342Z,36.25
2023-02-16T11:58:40.636Z,34.78
2023-02-16T12:01:32.071Z,34.95
2023-02-16T12:04:32.593Z,33.17
2023-02-16T12:07:31.430Z,33.50
2023-02-16T12:10:08.938Z,31.55
2023-02-16T12:12:55.066Z,33.35
2023-02-16T12:15:44.966Z,32.17
2023-02-16T12:18:36.954Z,32.47
2023-02-16T12:21:46.003Z,32.28
2023-02-16T12:24:38.411Z,31.38
2023-02-16T12:27:19.999Z,31.05
2023-02-16T12:30:08.335Z,33.08
2023-02-16T12:32:50.151Z,31.67
2023-02-16T12:35:53.993Z,30.80
2023-02-16T12:38:45.426Z,31.05
2023-02-16T12:41:32.596Z,31.48
2023-02-16T12:44:03.962Z,30.27
2023-02-16T12:46:41.366Z,30.75
2023-02-16T12:49:07.890Z,29.33
2023-02-16T12:51:38.598Z,29.60
2023-02-16T12:54:14.344Z,30.42
2023-02-16T12:56:54.967Z,29.75
2023-02-16T12:59:45.069Z,30.17
2023-02-16T13:02:23.698Z,28.40
2023-02-16T13:04:53.588Z,29.25
2023-02-16T13:07:33.461Z,28.50
2023-02-16T13:10:27.073Z,29.35
2023-02-16T13:13:03.456Z,28.27
2023-02-16T13:15:38.727Z,28.60
2023-02-16T13:18:20.454Z,28.23
2023-02-16T13:20:52.868Z,29.50
2023-02-16T13:23:22.395Z,28.77
2023-02-16T13:26:11.334Z,29.42
2023-02-16T13:29:02.506Z,28.98
2023-02-16T13:31:54.557Z,28.88
2023-02-16T13:34:24.162Z,33.97
2023-02-16T13:37:23.912Z,34.63
2023-02-16T13:39:59.456Z,29.00
2023-02-16T13:42:50.119Z,29.27
2023-02-16T13:45:30.936Z,28.50
2023-02-16T13:47:58.851Z,28.65
2023-02-16T13:50:28.245Z,30.20
2023-02-16T13:52:57.593Z,31.10
2023-02-16T13:55:33.722Z,29.17
2023-02-16T13:58:28.848Z,29.02
2023-02-16T14:00:55.955Z,26.83
2023-02-16T14:03:22.572Z,30.63
2023-02-16T14:05:53.047Z,29.33
2023-02-16T14:08:29.965Z,32.13
2023-02-16T14:11:00.793Z,28.98
2023-02-16T14:13:29.995Z,28.10
2023-02-16T14:15:59.350Z,28.65
2023-02-16T14:18:43.934Z,27.00
2023-02-16T14:21:44.299Z,29.38
2023-02-16T14:24:24.957Z,28.30
2023-02-16T14:26:54.802Z,26.55
2023-02-16T14:29:47.065Z,27.63
2023-02-16T14:32:22.501Z,27.42
2023-02-16T14:35:11.676Z,27.15
2023-02-16T14:37:42.386Z,26.70
2023-02-16T14:40:13.875Z,26.92
2023-02-16T14:42:49.229Z,26.65
2023-02-16T14:45:44.062Z,26.67
2023-02-16T14:48:10.690Z,26.85
2023-02-16T14:51:19.779Z,26.27
2023-02-16T14:54:04.909Z,26.00
2023-02-16T14:56:38.513Z,25.85
2023-02-16T14:59:30.230Z,25.02
2023-02-16T15:01:57.099Z,25.08
2023-02-16T15:04:30.514Z,25.58
2023-02-16T15:07:01.458Z,25.10
2023-02-16T15:09:31.451Z,25.73
2023-02-16T15:12:25.238Z,26.13
2023-02-16T15:14:59.705Z,24.73
2023-02-16T15:17:35.703Z,26.45
2023-02-16T15:20:10.915Z,26.13
2023-02-16T15:22:44.719Z,25.77
2023-02-16T15:25:30.087Z,28.35
2023-02-16T15:28:04.433Z,25.10
2023-02-16T15:30:36.739Z,24.92
2023-02-16T15:33:06.859Z,25.10
2023-02-16T15:35:38.661Z,25.85
2023-02-16T15:38:22.564Z,26.48
2023-02-16T15:40:56.420Z,27.75
2023-02-16T15:43:34.717Z,30.30
2023-02-16T15:46:04.787Z,29.88
2023-02-16T15:48:39.346Z,30.00
2023-02-16T15:51:16.479Z,31.20
2023-02-16T15:54:04.529Z,31.00
2023-02-16T15:56:39.548Z,32.17
2023-02-16T15:59:35.496Z,32.42
2023-02-16T16:02:24.725Z,33.00
2023-02-16T16:04:56.189Z,33.45
2023-02-16T16:07:28.140Z,34.97
2023-02-16T16:09:57.136Z,36.55
2023-02-16T16:12:24.993Z,37.05
2023-02-16T16:14:51.624Z,36.15
2023-02-16T16:17:23.823Z,38.15
2023-02-16T16:19:51.414Z,37.35
2023-02-16T16:22:36.108Z,39.90
2023-02-16T16:25:23.985Z,38.53
2023-02-16T16:27:50.627Z,38.50
2023-02-16T16:30:20.291Z,39.15
2023-02-16T16:32:47.012Z,38.53
2023-02-16T16:35:33.317Z,37.10
2023-02-16T16:38:01.004Z,36.47
2023-02-16T16:40:37.060Z,36.95
2023-02-16T16:43:03.734Z,31.70
2023-02-16T16:45:37.689Z,32.75
2023-02-16T16:48:19.512Z,32.63
2023-02-16T16:50:47.773Z,32.25
2023-02-16T16:53:40.475Z,32.13
2023-02-16T16:56:14.489Z,30.85
2023-02-16T16:58:41.912Z,30.33
2023-02-16T17:01:10.722Z,33.33
2023-02-16T17:03:37.301Z,31.77
2023-02-16T17:06:04.655Z,33.35
2023-02-16T17:08:31.420Z,36.83
2023-02-16T17:10:58.153Z,37.53
2023-02-16T17:13:24.732Z,37.75
2023-02-16T17:15:58.437Z,36.38
2023-02-16T17:18:25.237Z,38.50
2023-02-16T17:20:52.392Z,35.70
2023-02-16T17:23:21.683Z,34.22
2023-02-16T17:25:49.750Z,38.28
2023-02-16T17:28:18.387Z,39.33
2023-02-16T17:30:45.469Z,39.38
2023-02-16T17:33:12.235Z,39.58
2023-02-16T17:35:42.009Z,36.60
2023-02-16T17:38:19.972Z,25.35
2023-02-16T17:40:52.577Z,26.30
2023-02-16T17:43:20.702Z,30.58
2023-02-16T17:45:49.173Z,31.92
2023-02-16T17:48:18.222Z,33.83
2023-02-16T17:50:45.581Z,32.97
2023-02-16T17:53:14.561Z,34.45
2023-02-16T17:55:41.272Z,35.45
2023-02-16T17:58:08.005Z,36.97
2023-02-16T18:00:34.901Z,34.33
2023-02-16T18:03:01.507Z,34.00
2023-02-16T18:05:28.132Z,34.25
2023-02-16T18:07:56.205Z,35.97
2023-02-16T18:10:52.630Z,38.35
2023-02-16T18:13:19.972Z,37.63
2023-02-16T18:15:48.983Z,37.80
2023-02-16T18:18:17.383Z,39.28
2023-02-16T18:20:44.936Z,37.45
2023-02-16T18:23:11.892Z,38.83
2023-02-16T18:25:41.441Z,38.58
2023-02-16T18:28:08.080Z,38.42
2023-02-16T18:30:35.102Z,38.47
2023-02-16T18:33:01.685Z,38.10
2023-02-16T18:35:28.401Z,39.15
2023-02-16T18:37:54.997Z,39.38
2023-02-16T18:40:21.678Z,39.92
2023-02-16T18:42:48.738Z,39.33
2023-02-16T18:45:15.326Z,36.58
2023-02-16T18:47:44.354Z,33.15
2023-02-16T18:50:12.759Z,29.90
2023-02-16T18:52:40.078Z,26.58
2023-02-16T18:55:07.126Z,27.30
2023-02-16T18:57:33.851Z,31.67
2023-02-16T19:00:00.553Z,27.75
2023-02-16T19:02:28.507Z,31.77
2023-02-16T19:04:55.101Z,32.22
2023-02-16T19:07:21.631Z,33.92
2023-02-16T19:09:48.463Z,31.02
2023-02-16T19:12:15.150Z,34.08
2023-02-16T19:14:41.747Z,29.73
2023-02-16T19:17:08.505Z,28.13
2023-02-16T19:19:36.256Z,31.30
2023-02-16T19:22:03.719Z,32.63
2023-02-16T19:24:31.179Z,33.40
2023-02-16T19:26:57.809Z,30.25
2023-02-16T19:29:24.503Z,30.30
2023-02-16T19:31:51.150Z,31.90
2023-02-16T19:34:17.809Z,37.67
2023-02-16T19:36:44.963Z,33.45
2023-02-16T19:39:12.706Z,30.48
2023-02-16T19:41:41.463Z,29.67
2023-02-16T19:44:08.093Z,29.88
2023-02-16T19:46:35.506Z,32.72
2023-02-16T19:49:03.014Z,21.17
2023-02-16T19:51:29.871Z,22.08
2023-02-16T19:53:56.991Z,23.27
2023-02-16T19:56:25.430Z,27.38
2023-02-16T19:58:52.267Z,24.08
2023-02-16T20:01:24.981Z,22.58
2023-02-16T20:03:53.231Z,22.80
2023-02-16T20:06:21.273Z,20.73
2023-02-16T20:08:49.519Z,24.98
2023-02-16T20:11:18.345Z,24.63
2023-02-16T20:13:45.229Z,21.92
2023-02-16T20:16:13.477Z,22.65
2023-02-16T20:18:41.062Z,17.88
2023-02-16T20:21:12.160Z,19.90
2023-02-16T20:23:40.102Z,24.88
2023-02-16T20:26:09.022Z,27.35
2023-02-16T20:28:35.808Z,30.70
2023-02-16T20:31:03.285Z,26.92
2023-02-16T20:33:29.991Z,29.10
2023-02-16T20:35:56.607Z,28.88
2023-02-16T20:38:23.447Z,29.50
2023-02-16T20:40:50.340Z,30.98
2023-02-16T20:43:21.103Z,29.55
2023-02-16T20:45:48.021Z,35.17
2023-02-16T20:48:16.354Z,35.22
2023-02-16T20:50:43.194Z,34.58
2023-02-16T20:53:10.035Z,37.85
2023-02-16T20:55:40.311Z,35.15
2023-02-16T20:58:07.124Z,36.03
2023-02-16T21:00:33.858Z,36.15
2023-02-16T21:03:00.807Z,36.05
2023-02-16T21:05:27.758Z,28.13
2023-02-16T21:07:54.649Z,30.30
2023-02-16T21:10:22.877Z,32.97
2023-02-16T21:12:49.759Z,31.23
2023-02-16T21:15:16.935Z,32.00
2023-02-16T21:17:44.884Z,24.63
2023-02-16T21:20:12.372Z,20.10
2023-02-16T21:22:39.171Z,24.08
2023-02-16T21:25:06.561Z,22.35
2023-02-16T21:27:33.673Z,17.70
2023-02-16T21:30:01.094Z,17.35
2023-02-16T21:32:28.075Z,18.05
2023-02-16T21:34:54.975Z,29.10
2023-02-16T21:37:22.924Z,23.85
2023-02-16T21:40:08.467Z,25.33
2023-02-16T21:42:35.501Z,25.70
2023-02-16T21:45:14.293Z,25.25
2023-02-16T21:48:01.189Z,34.80
2023-02-16T21:50:29.206Z,28.65
2023-02-16T21:52:56.742Z,27.50
2023-02-16T21:55:42.379Z,24.80
2023-02-16T21:58:10.863Z,28.48
2023-02-16T22:00:40.997Z,28.63
2023-02-16T22:03:08.900Z,26.20
2023-02-16T22:05:36.471Z,29.30
2023-02-16T22:08:03.896Z,25.50
2023-02-16T22:10:31.051Z,31.25
2023-02-16T22:12:58.168Z,26.08
2023-02-16T22:15:26.056Z,16.80
2023-02-16T22:17:53.611Z,25.13
2023-02-16T22:20:20.335Z,24.35
2023-02-16T22:22:47.094Z,31.02
2023-02-16T22:25:14.145Z,27.77
2023-02-16T22:27:41.558Z,27.30
2023-02-16T22:30:08.685Z,25.42
2023-02-16T22:32:35.357Z,26.50
2023-02-16T22:35:01.933Z,26.50
2023-02-16T22:37:28.669Z,26.70
2023-02-16T22:39:56.386Z,27.08
2023-02-16T22:42:23.375Z,27.77
2023-02-16T22:44:50.255Z,28.80
2023-02-16T22:47:16.958Z,28.13
2023-02-16T22:49:43.759Z,26.08
2023-02-16T22:52:11.497Z,25.42
2023-02-16T22:54:38.458Z,24.20
2023-02-16T22:57:07.214Z,21.45
2023-02-16T22:59:33.986Z,23.17
2023-02-16T23:02:01.032Z,23.90
2023-02-16T23:04:27.822Z,24.48
2023-02-16T23:06:54.581Z,25.40
2023-02-16T23:09:22.045Z,23.83
2023-02-16T23:11:50.003Z,23.98
2023-02-16T23:14:18.310Z,23.83
2023-02-16T23:16:53.651Z,23.55
2023-02-16T23:19:26.383Z,19.90
2023-02-16T23:21:53.974Z,21.13
2023-02-16T23:24:23.192Z,22.10
2023-02-16T23:26:50.251Z,20.95
2023-02-16T23:29:17.483Z,21.85
2023-02-16T23:31:46.923Z,20.63
2023-02-16T23:34:13.871Z,20.88
2023-02-16T23:36:40.886Z,20.98
2023-02-16T23:39:11.003Z,19.35
2023-02-16T23:41:37.861Z,20.42
2023-02-16T23:44:05.148Z,19.98
2023-02-16T23:46:31.902Z,18.70
2023-02-16T23:48:58.983Z,20.02
2023-02-16T23:51:26.484Z,20.58
2023-02-16T23:53:53.296Z,20.73
2023-02-16T23:56:25.806Z,19.83
2023-02-16T23:58:52.772Z,19.25
